Helena, Kentucky
Current Conditions -  °F | °C
As of 9:15 AM on Tuesday 27 Jan 2015 (Local Time) from KFGX Reporting Station
Clear Clear  
Wind Chill:   Ceiling: Unl
Heat Index: 19°   Visibility: 10mi
Dew Point: 14°   Wind: 7mph
Humidity: 82%   Direction: 60°ENE
Pressure: 30.04"   Gusts: NA
Location:  38.4934°N, 83.7754°W
Report Text: KFGX 271415Z AUTO 06006KT 10SM CLR M07/M10 A3004 RMK AO2 T10751101
Loading
Personal Weather Stations






























Interactive Weather Map New forecast layout! Learn more

10-Day Weather Forecast

Advertisements
Track Severe Weather on mobile